createdAt,value
2022-08-03T00:00:42.767Z,0.85
2022-08-03T00:03:10.409Z,0.55
2022-08-03T00:05:38.552Z,0.80
2022-08-03T00:08:06.099Z,1.33
2022-08-03T00:10:34.688Z,3.28
2022-08-03T00:13:02.342Z,0.75
2022-08-03T00:15:30.098Z,0.63
2022-08-03T00:17:58.258Z,0.52
2022-08-03T00:20:26.113Z,1.02
2022-08-03T00:27:48.955Z,1.23
2022-08-03T00:30:18.683Z,0.70
2022-08-03T00:32:47.459Z,0.50
2022-08-03T00:35:37.141Z,1.17
2022-08-03T00:38:03.141Z,1.38
2022-08-03T00:40:31.930Z,1.42
2022-08-03T00:43:04.270Z,0.50
2022-08-03T00:45:42.527Z,3.72
2022-08-03T00:48:31.066Z,0.32
2022-08-03T00:51:00.021Z,0.50
2022-08-03T00:58:24.215Z,1.85
2022-08-03T01:00:52.278Z,0.30
2022-08-03T01:03:20.054Z,0.73
2022-08-03T01:05:53.729Z,0.63
2022-08-03T01:08:45.641Z,0.77
2022-08-03T01:11:34.955Z,0.40
2022-08-03T01:14:34.315Z,0.30
2022-08-03T01:17:15.120Z,0.43
2022-08-03T01:19:56.659Z,0.32
2022-08-03T01:23:03.052Z,0.55
2022-08-03T01:25:46.296Z,1.95
2022-08-03T01:29:01.735Z,0.57
2022-08-03T01:32:58.488Z,1.55
2022-08-03T01:35:02.539Z,0.13
2022-08-03T01:37:39.698Z,1.02
2022-08-03T01:40:09.261Z,0.25
2022-08-03T01:42:38.562Z,0.35
2022-08-03T01:45:08.939Z,0.30
2022-08-03T01:47:37.078Z,0.20
2022-08-03T01:50:07.284Z,0.52
2022-08-03T01:52:37.874Z,1.02
2022-08-03T01:55:07.431Z,0.40
2022-08-03T01:58:04.588Z,0.30
2022-08-03T02:00:26.047Z,1.33
2022-08-03T02:02:55.787Z,0.40
2022-08-03T02:05:24.624Z,0.40
2022-08-03T02:07:53.090Z,0.70
2022-08-03T02:10:34.629Z,0.82
2022-08-03T02:13:06.840Z,0.88
2022-08-03T02:15:37.552Z,0.60
2022-08-03T02:18:08.120Z,0.43
2022-08-03T02:20:38.984Z,0.57
2022-08-03T02:23:07.398Z,0.55
2022-08-03T02:25:43.175Z,1.25
2022-08-03T02:28:20.092Z,0.80
2022-08-03T02:30:55.618Z,0.73
2022-08-03T02:33:37.528Z,1.70
2022-08-03T02:36:06.322Z,0.80
2022-08-03T02:38:36.895Z,1.63
2022-08-03T02:41:09.030Z,3.58
2022-08-03T02:43:40.224Z,1.10
2022-08-03T02:46:32.716Z,3.58
2022-08-03T02:49:40.710Z,0.75
2022-08-03T02:51:54.395Z,0.93
2022-08-03T02:54:25.013Z,1.10
2022-08-03T02:56:55.228Z,1.63
2022-08-03T02:59:24.891Z,0.82
2022-08-03T03:01:55.114Z,1.15
2022-08-03T03:04:24.203Z,1.52
2022-08-03T03:06:58.792Z,1.95
2022-08-03T03:09:40.387Z,0.80
2022-08-03T03:12:11.484Z,1.30
2022-08-03T03:14:39.878Z,0.88
2022-08-03T03:17:09.261Z,1.52
2022-08-03T03:19:39.461Z,2.08
2022-08-03T03:22:08.523Z,1.92
2022-08-03T03:24:36.933Z,1.75
2022-08-03T03:27:05.465Z,2.25
2022-08-03T03:29:39.156Z,1.60
2022-08-03T03:32:09.144Z,2.15
2022-08-03T03:34:37.671Z,1.95
2022-08-03T03:37:05.839Z,0.90
2022-08-03T03:39:33.702Z,0.80
2022-08-03T03:44:30.010Z,1.88
2022-08-03T03:47:00.929Z,1.90
2022-08-03T03:49:28.726Z,1.98
2022-08-03T03:54:25.440Z,1.45
2022-08-03T03:56:57.642Z,1.48
2022-08-03T03:59:25.145Z,0.65
2022-08-03T04:04:45.534Z,3.17
2022-08-03T04:07:31.494Z,2.00
2022-08-03T04:10:17.706Z,1.60
2022-08-03T04:12:50.361Z,2.40
2022-08-03T04:15:22.853Z,1.40
2022-08-03T04:17:53.007Z,1.33
2022-08-03T04:20:22.920Z,3.03
2022-08-03T04:22:53.001Z,3.47
2022-08-03T04:25:24.261Z,2.15
2022-08-03T04:28:29.892Z,4.18
2022-08-03T04:30:48.343Z,2.20
2022-08-03T04:33:17.689Z,1.70
2022-08-03T04:36:01.276Z,0.80
2022-08-03T04:38:37.404Z,2.13
2022-08-03T04:41:05.734Z,1.55
2022-08-03T04:43:34.267Z,1.45
2022-08-03T04:46:02.942Z,1.60
2022-08-03T04:48:30.863Z,1.20
2022-08-03T04:53:26.366Z,0.95
2022-08-03T04:55:54.112Z,1.88
2022-08-03T04:58:21.714Z,2.35
2022-08-03T05:00:52.161Z,2.20
2022-08-03T05:05:49.658Z,2.47
2022-08-03T05:08:28.164Z,2.67
2022-08-03T05:10:59.090Z,3.10
2022-08-03T05:13:27.071Z,1.25
2022-08-03T05:15:54.834Z,1.27
2022-08-03T05:18:23.064Z,2.72
2022-08-03T05:20:50.786Z,0.57
2022-08-03T05:23:18.532Z,2.00
2022-08-03T05:25:50.021Z,1.27
2022-08-03T05:28:18.242Z,1.42
2022-08-03T05:30:46.439Z,1.00
2022-08-03T05:33:14.168Z,0.75
2022-08-03T05:35:57.994Z,2.47
2022-08-03T05:38:34.521Z,1.13
2022-08-03T05:41:22.169Z,1.02
2022-08-03T05:43:55.685Z,2.08
2022-08-03T05:46:23.931Z,0.50
2022-08-03T05:48:51.704Z,1.55
2022-08-03T05:53:48.246Z,0.70
2022-08-03T05:58:46.712Z,2.85
2022-08-03T06:01:16.919Z,1.33
2022-08-03T06:03:46.169Z,1.20
2022-08-03T06:06:14.099Z,1.30
2022-08-03T06:08:44.038Z,0.47
2022-08-03T06:11:12.479Z,6.72
2022-08-03T06:13:40.920Z,1.25
2022-08-03T06:16:09.276Z,5.43
2022-08-03T06:18:37.996Z,3.38
2022-08-03T06:21:14.378Z,2.45
2022-08-03T06:23:54.356Z,3.42
2022-08-03T06:26:28.058Z,2.17
2022-08-03T06:28:56.118Z,2.25
2022-08-03T06:31:33.107Z,5.90
2022-08-03T06:34:32.099Z,3.63
2022-08-03T06:36:53.347Z,5.90
2022-08-03T06:41:53.583Z,4.05
2022-08-03T06:44:21.631Z,4.53
2022-08-03T06:49:16.848Z,3.35
2022-08-03T06:52:03.767Z,2.97
2022-08-03T06:57:01.264Z,7.40
2022-08-03T07:00:07.494Z,6.13
2022-08-03T07:02:20.016Z,6.50
2022-08-03T07:04:49.024Z,6.22
2022-08-03T07:07:17.482Z,5.07
2022-08-03T07:09:56.653Z,7.88
2022-08-03T07:12:26.536Z,6.43
2022-08-03T07:14:59.822Z,7.65
2022-08-03T07:17:30.522Z,8.20
2022-08-03T07:19:59.458Z,7.55
2022-08-03T07:22:27.431Z,9.82
2022-08-03T07:24:55.616Z,7.03
2022-08-03T07:27:23.209Z,10.32
2022-08-03T07:29:50.928Z,6.45
2022-08-03T07:32:18.902Z,6.00
2022-08-03T07:34:47.011Z,7.13
2022-08-03T07:39:42.349Z,6.10
2022-08-03T07:42:10.163Z,10.77
2022-08-03T07:47:07.212Z,6.80
2022-08-03T07:49:41.349Z,4.05
2022-08-03T07:52:28.386Z,8.55
2022-08-03T07:54:56.305Z,9.30
2022-08-03T07:57:24.182Z,5.10
2022-08-03T08:02:40.251Z,7.90
2022-08-03T08:05:08.518Z,8.65
2022-08-03T08:07:36.530Z,9.43
2022-08-03T08:10:06.795Z,6.60
2022-08-03T08:12:34.564Z,5.65
2022-08-03T08:15:02.743Z,5.88
2022-08-03T08:17:30.698Z,10.70
2022-08-03T08:19:58.352Z,9.32
2022-08-03T08:22:29.885Z,9.02
2022-08-03T08:25:01.836Z,7.45
2022-08-03T08:28:31.804Z,9.68
2022-08-03T08:30:19.699Z,5.90
2022-08-03T08:32:48.163Z,7.82
2022-08-03T08:35:16.978Z,6.88
2022-08-03T08:37:51.006Z,6.35
2022-08-03T08:40:22.574Z,4.28
2022-08-03T08:42:59.165Z,8.98
2022-08-03T08:45:28.363Z,8.23
2022-08-03T08:48:01.858Z,9.13
2022-08-03T08:50:32.009Z,5.30
2022-08-03T08:53:03.750Z,5.53
2022-08-03T08:55:58.877Z,7.93
2022-08-03T08:58:23.383Z,4.95
2022-08-03T09:00:51.375Z,4.13
2022-08-03T09:03:22.513Z,6.78
2022-08-03T09:06:01.208Z,4.85
2022-08-03T09:08:30.229Z,9.48
2022-08-03T09:10:58.299Z,7.38
2022-08-03T09:13:26.351Z,5.28
2022-08-03T09:16:18.396Z,7.03
2022-08-03T09:18:51.465Z,5.43
2022-08-03T09:21:34.937Z,8.55
2022-08-03T09:24:06.273Z,5.75
2022-08-03T09:26:37.339Z,8.05
2022-08-03T09:29:14.835Z,5.07
2022-08-03T09:31:45.363Z,4.65
2022-08-03T09:34:15.995Z,5.65
2022-08-03T09:36:49.349Z,4.18
2022-08-03T09:39:17.959Z,3.53
2022-08-03T09:41:48.246Z,6.72
2022-08-03T09:44:25.347Z,5.43
2022-08-03T09:46:58.961Z,4.93
2022-08-03T09:49:26.747Z,7.57
2022-08-03T09:54:43.495Z,4.78
2022-08-03T09:57:22.761Z,5.65
2022-08-03T09:59:54.989Z,11.05
2022-08-03T10:02:41.910Z,4.90
2022-08-03T10:05:19.474Z,6.60
2022-08-03T10:07:50.824Z,8.88
2022-08-03T10:10:30.726Z,4.70
2022-08-03T10:13:03.208Z,6.47
2022-08-03T10:16:22.083Z,5.45
2022-08-03T10:18:19.856Z,4.85
2022-08-03T10:23:23.845Z,6.10
2022-08-03T10:25:58.025Z,6.03
2022-08-03T10:28:26.407Z,6.10
2022-08-03T10:30:55.450Z,10.55
2022-08-03T10:33:51.126Z,5.30
2022-08-03T10:36:16.939Z,6.25
2022-08-03T10:38:52.752Z,5.95
2022-08-03T10:41:23.217Z,4.00
2022-08-03T10:44:03.825Z,5.45
2022-08-03T10:46:33.568Z,6.10
2022-08-03T10:49:01.775Z,6.53
2022-08-03T10:51:32.236Z,4.38
2022-08-03T10:54:01.932Z,5.85
2022-08-03T10:56:51.465Z,11.15
2022-08-03T10:59:48.473Z,5.63
2022-08-03T11:02:16.641Z,4.63
2022-08-03T11:04:45.334Z,12.90
2022-08-03T11:07:20.090Z,5.63
2022-08-03T11:09:53.418Z,4.85
2022-08-03T11:12:34.363Z,4.57
2022-08-03T11:15:08.861Z,6.57
2022-08-03T11:17:46.517Z,6.63
2022-08-03T11:20:54.172Z,5.00
2022-08-03T11:24:02.717Z,5.43
2022-08-03T11:26:34.633Z,6.55
2022-08-03T11:29:31.520Z,4.38
2022-08-03T11:31:59.386Z,4.07
2022-08-03T11:34:27.014Z,7.00
2022-08-03T11:37:22.237Z,8.88
2022-08-03T11:39:52.979Z,6.05
2022-08-03T11:42:27.091Z,6.25
2022-08-03T11:44:57.676Z,8.18
2022-08-03T11:47:29.645Z,6.45
2022-08-03T11:50:00.369Z,7.43
2022-08-03T11:52:33.899Z,6.05
2022-08-03T11:55:01.956Z,5.45
2022-08-03T11:59:10.798Z,5.40
2022-08-03T12:00:34.352Z,12.13
2022-08-03T12:03:14.507Z,4.82
2022-08-03T12:05:51.415Z,6.85
2022-08-03T12:08:32.225Z,5.82
2022-08-03T12:11:04.558Z,7.10
2022-08-03T12:14:45.352Z,8.20
2022-08-03T12:16:28.854Z,3.83
2022-08-03T12:18:57.880Z,8.57
2022-08-03T12:21:25.907Z,7.53
2022-08-03T12:24:00.318Z,6.43
2022-08-03T12:26:30.142Z,5.93
2022-08-03T12:28:58.437Z,6.63
2022-08-03T12:31:27.101Z,8.18
2022-08-03T12:34:03.332Z,6.18
2022-08-03T12:36:33.273Z,4.53
2022-08-03T12:39:08.928Z,4.47
2022-08-03T12:41:39.529Z,4.30
2022-08-03T12:44:08.762Z,6.30
2022-08-03T12:46:41.665Z,7.28
2022-08-03T12:49:19.090Z,5.45
2022-08-03T12:51:47.059Z,10.82
2022-08-03T12:54:24.523Z,6.75
2022-08-03T12:57:16.225Z,4.28
2022-08-03T12:59:53.592Z,6.18
2022-08-03T13:04:55.386Z,7.45
2022-08-03T13:07:23.621Z,9.00
2022-08-03T13:09:56.868Z,8.70
2022-08-03T13:12:27.531Z,8.02
2022-08-03T13:15:00.185Z,7.00
2022-08-03T13:17:28.227Z,9.20
2022-08-03T13:19:56.505Z,8.50
2022-08-03T13:22:27.207Z,3.95
2022-08-03T13:24:57.472Z,7.47
2022-08-03T13:28:04.415Z,9.25
2022-08-03T13:30:17.905Z,6.70
2022-08-03T13:32:58.841Z,10.82
2022-08-03T13:35:26.947Z,5.80
2022-08-03T13:37:54.670Z,6.45
2022-08-03T13:40:23.822Z,3.75
2022-08-03T13:42:58.536Z,7.45
2022-08-03T13:45:27.596Z,9.15
2022-08-03T13:47:55.468Z,5.57
2022-08-03T13:50:24.110Z,3.83
2022-08-03T13:52:51.943Z,12.85
2022-08-03T13:55:19.859Z,5.97
2022-08-03T13:58:04.846Z,5.10
2022-08-03T14:00:36.407Z,10.80
2022-08-03T14:03:12.583Z,7.72
2022-08-03T14:05:43.011Z,7.78
2022-08-03T14:08:11.121Z,5.90
2022-08-03T14:10:43.222Z,3.75
2022-08-03T14:13:17.471Z,9.07
2022-08-03T14:15:49.862Z,5.95
2022-08-03T14:18:27.905Z,4.68
2022-08-03T14:21:05.931Z,5.78
2022-08-03T14:23:34.535Z,5.25
2022-08-03T14:26:02.077Z,5.82
2022-08-03T14:28:30.080Z,7.03
2022-08-03T14:30:58.231Z,4.63
2022-08-03T14:33:26.148Z,5.45
2022-08-03T14:35:54.612Z,12.27
2022-08-03T14:38:23.163Z,10.40
2022-08-03T14:40:51.494Z,3.50
2022-08-03T14:43:21.255Z,6.85
2022-08-03T14:45:52.314Z,4.45
2022-08-03T14:50:27.778Z,4.03
2022-08-03T14:51:09.090Z,4.80
2022-08-03T14:53:36.901Z,7.25
2022-08-03T14:56:09.605Z,2.80
2022-08-03T14:58:38.678Z,5.03
2022-08-03T15:02:04.675Z,6.88
2022-08-03T15:03:55.252Z,6.30
2022-08-03T15:06:22.937Z,4.95
2022-08-03T15:09:13.619Z,4.95
2022-08-03T15:11:38.715Z,7.60
2022-08-03T15:14:09.443Z,10.50
2022-08-03T15:16:39.764Z,9.63
2022-08-03T15:20:03.242Z,5.97
2022-08-03T15:21:55.268Z,8.10
2022-08-03T15:24:23.097Z,3.88
2022-08-03T15:26:53.045Z,8.93
2022-08-03T15:30:08.221Z,7.07
2022-08-03T15:32:09.636Z,4.20
2022-08-03T15:34:37.971Z,7.53
2022-08-03T15:37:12.906Z,4.28
2022-08-03T15:39:58.122Z,7.47
2022-08-03T15:42:29.597Z,7.78
2022-08-03T15:44:57.985Z,4.10
2022-08-03T15:47:26.555Z,3.85
2022-08-03T15:49:54.238Z,3.80
2022-08-03T15:52:22.075Z,4.60
2022-08-03T15:54:49.718Z,8.52
2022-08-03T15:57:17.890Z,3.67
2022-08-03T15:59:46.032Z,7.28
2022-08-03T16:02:13.988Z,6.57
2022-08-03T16:04:42.221Z,5.35
2022-08-03T16:07:12.587Z,5.75
2022-08-03T16:09:43.470Z,4.18
2022-08-03T16:12:15.665Z,8.07
2022-08-03T16:14:52.679Z,7.68
2022-08-03T16:17:24.231Z,5.60
2022-08-03T16:19:54.871Z,7.15
2022-08-03T16:22:26.371Z,6.93
2022-08-03T16:24:54.661Z,6.70
2022-08-03T16:27:37.686Z,2.80
2022-08-03T16:30:13.119Z,5.18
2022-08-03T16:32:41.258Z,3.70
2022-08-03T16:35:09.500Z,4.25
2022-08-03T16:37:50.766Z,6.47
2022-08-03T16:40:25.205Z,4.63
2022-08-03T16:42:53.947Z,8.93
2022-08-03T16:45:22.226Z,5.35
2022-08-03T16:48:05.279Z,6.95
2022-08-03T16:50:35.772Z,5.22
2022-08-03T16:53:09.059Z,3.58
2022-08-03T16:55:43.382Z,4.50
2022-08-03T16:58:24.474Z,5.60
2022-08-03T17:01:21.770Z,9.80
2022-08-03T17:04:03.453Z,7.03
2022-08-03T17:06:45.175Z,6.55
2022-08-03T17:09:20.838Z,11.10
2022-08-03T17:11:50.750Z,5.95
2022-08-03T17:14:28.374Z,7.47
2022-08-03T17:17:03.750Z,8.63
2022-08-03T17:22:18.812Z,9.57
2022-08-03T17:24:51.605Z,9.00
2022-08-03T17:28:48.490Z,7.47
2022-08-03T17:30:13.304Z,7.55
2022-08-03T17:32:52.741Z,6.75
2022-08-03T17:35:34.333Z,8.68
2022-08-03T17:38:10.286Z,7.97
2022-08-03T17:40:48.024Z,10.35
2022-08-03T17:44:14.509Z,4.25
2022-08-03T17:46:10.572Z,10.80
2022-08-03T17:48:41.223Z,10.90
2022-08-03T17:51:34.541Z,7.75
2022-08-03T17:54:30.701Z,8.70
2022-08-03T18:00:35.301Z,8.00
2022-08-03T18:03:56.939Z,8.13
2022-08-03T18:06:31.304Z,8.82
2022-08-03T18:09:05.231Z,7.88
2022-08-03T18:11:55.493Z,9.40
2022-08-03T18:14:57.345Z,10.60
2022-08-03T18:17:54.978Z,9.48
2022-08-03T18:20:33.189Z,8.13
2022-08-03T18:23:10.569Z,8.73
2022-08-03T18:25:49.991Z,4.45
2022-08-03T18:28:23.182Z,14.27
2022-08-03T18:30:54.574Z,12.95
2022-08-03T18:34:17.325Z,10.55
2022-08-03T18:36:29.495Z,9.88
2022-08-03T18:39:01.747Z,8.48
2022-08-03T18:41:34.676Z,10.00
2022-08-03T18:44:08.394Z,8.98
2022-08-03T18:47:08.059Z,9.63
2022-08-03T18:50:19.349Z,9.65
2022-08-03T18:53:15.743Z,8.90
2022-08-03T18:56:02.742Z,7.05
2022-08-03T18:58:47.494Z,7.35
2022-08-03T19:01:58.379Z,5.47
2022-08-03T19:04:35.777Z,8.35
2022-08-03T19:07:08.010Z,4.70
2022-08-03T19:09:36.095Z,7.13
2022-08-03T19:12:30.770Z,4.53
2022-08-03T19:15:10.577Z,10.07
2022-08-03T19:17:53.409Z,6.22
2022-08-03T19:20:23.020Z,10.13
2022-08-03T19:22:55.089Z,6.40
2022-08-03T19:25:34.306Z,13.18
2022-08-03T19:28:07.410Z,5.35
2022-08-03T19:30:38.978Z,5.75
2022-08-03T19:33:11.330Z,6.40
2022-08-03T19:35:51.696Z,7.68
2022-08-03T19:38:28.689Z,7.07
2022-08-03T19:41:03.670Z,6.03
2022-08-03T19:44:08.887Z,4.70
2022-08-03T19:47:01.542Z,4.18
2022-08-03T19:49:56.975Z,6.85
2022-08-03T19:52:31.238Z,6.72
2022-08-03T19:55:00.494Z,4.93
2022-08-03T19:57:29.492Z,8.80
2022-08-03T20:00:03.415Z,7.80
2022-08-03T20:02:35.346Z,7.32
2022-08-03T20:05:03.076Z,6.20
2022-08-03T20:07:32.936Z,11.13
2022-08-03T20:10:04.375Z,5.30
2022-08-03T20:12:39.197Z,11.95
2022-08-03T20:15:09.947Z,7.55
2022-08-03T20:17:54.570Z,8.02
2022-08-03T20:20:36.034Z,7.53
2022-08-03T20:23:11.406Z,7.78
2022-08-03T20:25:57.357Z,9.30
2022-08-03T20:28:50.088Z,9.40
2022-08-03T20:31:25.137Z,10.05
2022-08-03T20:34:01.092Z,4.95
2022-08-03T20:36:29.186Z,7.32
2022-08-03T20:38:58.759Z,11.70
2022-08-03T20:41:30.705Z,9.52
2022-08-03T20:44:07.481Z,8.52
2022-08-03T20:46:53.437Z,10.40
2022-08-03T20:49:26.043Z,6.72
2022-08-03T20:51:54.606Z,9.70
2022-08-03T20:54:29.681Z,7.63
2022-08-03T20:57:03.573Z,9.03
2022-08-03T20:59:50.226Z,10.80
2022-08-03T21:02:28.886Z,11.30
2022-08-03T21:05:03.665Z,9.15
2022-08-03T21:08:06.368Z,8.43
2022-08-03T21:10:38.594Z,8.45
2022-08-03T21:13:04.062Z,7.18
2022-08-03T21:13:39.410Z,11.98
2022-08-03T21:16:14.612Z,10.60
2022-08-03T21:18:51.168Z,12.00
2022-08-03T21:21:21.513Z,5.13
2022-08-03T21:23:52.711Z,7.65
2022-08-03T21:26:22.632Z,6.93
2022-08-03T21:28:52.059Z,4.85
2022-08-03T21:31:25.577Z,9.35
2022-08-03T21:33:55.580Z,14.90
2022-08-03T21:36:23.702Z,10.38
2022-08-03T21:38:56.504Z,12.43
2022-08-03T21:41:31.344Z,6.65
2022-08-03T21:44:00.903Z,8.18
2022-08-03T21:46:35.210Z,9.43
2022-08-03T21:50:05.845Z,8.15
2022-08-03T21:51:58.033Z,9.88
2022-08-03T21:54:38.283Z,8.02
2022-08-03T21:57:13.359Z,8.80
2022-08-03T21:59:51.723Z,14.80
2022-08-03T22:02:24.500Z,6.93
2022-08-03T22:04:55.564Z,6.97
2022-08-03T22:07:29.038Z,6.18
2022-08-03T22:09:58.895Z,7.25
2022-08-03T22:12:29.753Z,17.30
2022-08-03T22:15:07.530Z,13.93
2022-08-03T22:17:54.527Z,12.48
2022-08-03T22:20:25.345Z,10.75
2022-08-03T22:22:56.601Z,7.60
2022-08-03T22:25:30.925Z,9.43
2022-08-03T22:28:08.249Z,11.43
2022-08-03T22:30:37.367Z,14.55
2022-08-03T22:33:11.169Z,8.98
2022-08-03T22:35:48.267Z,11.88
2022-08-03T22:38:18.089Z,11.57
2022-08-03T22:40:49.907Z,8.95
2022-08-03T22:43:17.955Z,13.85
2022-08-03T22:48:40.856Z,13.68
2022-08-03T22:51:09.502Z,12.93
2022-08-03T22:56:07.312Z,12.10
2022-08-03T22:58:35.503Z,11.93
2022-08-03T23:01:08.101Z,11.32
2022-08-03T23:03:59.878Z,13.40
2022-08-03T23:06:34.586Z,8.48
2022-08-03T23:09:06.261Z,17.40
2022-08-03T23:11:45.412Z,8.27
2022-08-03T23:14:16.494Z,12.55
2022-08-03T23:16:45.700Z,9.05
2022-08-03T23:19:16.651Z,13.23
2022-08-03T23:21:53.302Z,13.48
2022-08-03T23:24:30.553Z,8.30
2022-08-03T23:26:59.433Z,15.57
2022-08-03T23:29:29.817Z,10.65
2022-08-03T23:31:59.579Z,9.90
2022-08-03T23:34:46.665Z,15.30
2022-08-03T23:37:16.732Z,12.10
2022-08-03T23:39:48.646Z,12.73
2022-08-03T23:42:20.485Z,11.57
2022-08-03T23:44:54.756Z,20.17
2022-08-03T23:47:23.433Z,14.10
2022-08-03T23:49:54.629Z,15.63
2022-08-03T23:52:37.516Z,15.05
2022-08-03T23:55:18.090Z,16.83
2022-08-03T23:58:10.975Z,12.93
